Time;durP1;ratioP1;P1;durP2;ratioP2;P2;SDS_P1;SDS_P2;PMS_P1;PMS_P2;Temp;Humidity;BMP_temperature;BMP_pressure;BME280_temperature;BME280_humidity;BME280_pressure;Samples;Min_cycle;Max_cycle;Signal;HPM_P1;HPM_P2
2022/04/02 00:01:26;;;;;;;6.23;1.50;;;;;;;13.20;34.06;101770.09;5045493;28;20041;-72
2022/04/02 00:03:52;;;;;;;3.83;1.60;;;;;;;12.78;34.62;101770.31;5031499;28;20485;-72
2022/04/02 00:06:17;;;;;;;8.70;2.37;;;;;;;12.78;34.38;101769.44;5032405;28;20033;-72
2022/04/02 00:08:43;;;;;;;4.33;2.10;;;;;;;12.58;34.82;101773.00;5033028;28;20029;-72
2022/04/02 00:11:08;;;;;;;3.23;1.80;;;;;;;12.73;35.05;101761.56;5030508;28;20063;-72
2022/04/02 00:13:34;;;;;;;8.00;1.90;;;;;;;12.35;35.40;101771.31;5032369;28;20032;-72
2022/04/02 00:16:01;;;;;;;3.63;2.00;;;;;;;12.28;35.55;101769.59;5042201;28;20428;-72
2022/04/02 00:18:29;;;;;;;6.57;1.87;;;;;;;12.13;35.78;101767.00;5030565;28;20406;-72
2022/04/02 00:20:54;;;;;;;2.63;1.73;;;;;;;12.53;35.41;101765.16;5031949;28;20036;-72
2022/04/02 00:26:05;;;;;;;9.73;1.80;;;;;;;12.35;36.07;101771.31;5031898;28;20397;-72
2022/04/02 00:28:31;;;;;;;4.77;2.30;;;;;;;12.21;36.28;101757.38;5044064;28;20033;-72
2022/04/02 00:30:57;;;;;;;4.23;2.10;;;;;;;12.54;35.60;101755.53;5049364;28;20040;-72
2022/04/02 00:33:22;;;;;;;5.57;1.93;;;;;;;12.25;36.30;101759.09;5031967;28;20060;-72
2022/04/02 00:35:47;;;;;;;5.30;1.77;;;;;;;11.92;36.81;101765.25;5030607;28;20029;-72
2022/04/02 00:38:13;;;;;;;4.53;1.57;;;;;;;12.30;36.89;101762.59;5032426;28;20036;-72
2022/04/02 00:40:42;;;;;;;3.87;1.80;;;;;;;11.94;36.37;101753.00;5033286;28;20100;-72
2022/04/02 00:43:20;;;;;;;4.83;1.80;;;;;;;12.60;35.70;101750.28;5031283;28;20029;-72
2022/04/02 00:45:46;;;;;;;3.83;1.90;;;;;;;12.53;36.05;101748.56;5032582;28;20029;-72
2022/04/02 00:48:11;;;;;;;2.57;1.67;;;;;;;12.68;36.48;101758.97;5030944;28;20388;-72
2022/04/02 00:50:37;;;;;;;8.93;2.00;;;;;;;12.99;35.61;101750.09;5032784;28;20048;-72
2022/04/02 00:53:02;;;;;;;6.80;1.80;;;;;;;12.94;35.81;101750.13;5031713;28;20041;-72
2022/04/02 00:55:30;;;;;;;7.70;2.00;;;;;;;12.69;36.36;101754.59;5034142;28;20037;-72
2022/04/02 00:57:56;;;;;;;6.60;2.07;;;;;;;12.94;36.24;101755.38;5030944;28;20485;-72
2022/04/02 01:00:22;;;;;;;6.17;2.00;;;;;;;12.60;36.61;101755.53;5031921;28;20135;-72
2022/04/02 01:02:47;;;;;;;5.60;1.67;;;;;;;12.69;36.54;101759.84;5040210;28;20122;-72
2022/04/02 01:05:12;;;;;;;5.37;1.53;;;;;;;11.73;37.90;101765.22;5028813;28;20021;-72
2022/04/02 01:07:39;;;;;;;4.97;2.00;;;;;;;11.99;37.55;101770.53;5029853;28;20033;-72
2022/04/02 01:10:05;;;;;;;5.93;1.70;;;;;;;12.78;36.73;101764.19;5033858;28;20104;-72
2022/04/02 01:12:30;;;;;;;4.67;1.50;;;;;;;12.35;36.82;101766.09;5031084;28;20047;-72
2022/04/02 01:14:56;;;;;;;3.67;1.67;;;;;;;12.73;36.24;101758.94;5045369;28;20037;-72
2022/04/02 01:17:22;;;;;;;3.77;1.93;;;;;;;13.15;36.13;101764.88;5030805;28;20051;-72
2022/04/02 01:19:47;;;;;;;4.30;1.83;;;;;;;13.03;36.12;101765.81;5028899;28;20033;-72
2022/04/02 01:22:13;;;;;;;2.57;1.53;;;;;;;12.34;36.55;101766.94;5029225;28;20552;-72
2022/04/02 01:24:38;;;;;;;6.40;2.53;;;;;;;12.65;36.77;101769.50;5046324;28;20095;-72
2022/04/02 01:27:07;;;;;;;6.40;1.90;;;;;;;12.07;37.32;101767.88;5031367;28;20037;-72
2022/04/02 01:29:33;;;;;;;4.57;1.73;;;;;;;11.63;38.18;101769.59;5029625;28;20110;-72
2022/04/02 01:31:58;;;;;;;4.70;1.80;;;;;;;12.98;35.53;101762.34;5037019;28;20063;-72
2022/04/02 01:34:24;;;;;;;3.33;1.40;;;;;;;12.48;36.20;101763.44;5029906;28;20630;-72
2022/04/02 01:36:49;;;;;;;4.77;1.77;;;;;;;12.83;35.01;101765.91;5032904;28;20033;-72
2022/04/02 01:39:15;;;;;;;6.40;1.70;;;;;;;12.93;34.25;101761.50;5046374;28;20027;-72
2022/04/02 01:41:40;;;;;;;6.33;1.37;;;;;;;12.41;34.07;101774.81;5033458;28;20125;-72
2022/04/02 01:44:06;;;;;;;2.83;2.03;;;;;;;11.56;33.47;101767.84;5042636;28;20031;-72
2022/04/02 01:46:31;;;;;;;3.37;1.60;;;;;;;12.03;32.55;101769.66;5035014;28;20033;-72
2022/04/02 01:48:56;;;;;;;4.20;2.00;;;;;;;12.47;30.81;101775.66;5030547;28;20100;-72
2022/04/02 01:51:22;;;;;;;6.63;1.40;;;;;;;13.36;29.76;101771.75;5034599;28;20037;-72
2022/04/02 01:53:47;;;;;;;2.07;1.40;;;;;;;12.68;30.16;101774.72;5033042;28;20033;-72
2022/04/02 01:56:12;;;;;;;2.87;1.37;;;;;;;12.53;30.04;101775.66;5028848;28;20036;-72
2022/04/02 01:58:38;;;;;;;2.73;1.70;;;;;;;12.08;30.18;101772.25;5030995;28;20035;-72
2022/04/02 02:01:07;;;;;;;3.33;1.33;;;;;;;13.07;29.70;101780.66;5033443;28;20033;-72
2022/04/02 02:03:33;;;;;;;4.63;1.60;;;;;;;12.32;30.42;101787.06;5030205;28;20040;-72
2022/04/02 02:05:58;;;;;;;2.80;1.60;;;;;;;12.41;30.21;101786.16;5037999;28;20021;-72
2022/04/02 02:08:23;;;;;;;2.63;1.50;;;;;;;12.41;30.21;59011.22;5037602;28;20131;-72
2022/04/02 02:10:49;;;;;;;2.37;1.60;;;;;;;13.54;29.35;101773.38;5029558;28;20469;-72
2022/04/02 02:13:15;;;;;;;3.23;1.47;;;;;;;12.96;30.07;101774.59;5029743;28;20041;-72
2022/04/02 02:15:40;;;;;;;2.63;1.50;;;;;;;12.72;31.90;101776.44;5036580;28;20028;-72
2022/04/02 02:18:06;;;;;;;1.73;1.27;;;;;;;13.22;31.49;101763.09;5038313;28;20489;-72
2022/04/02 02:20:31;;;;;;;7.97;1.90;;;;;;;12.68;33.29;101769.47;5042270;28;20029;-72
2022/04/02 02:22:57;;;;;;;4.60;1.70;;;;;;;11.31;35.96;101770.44;5046012;28;20417;-72
2022/04/02 02:25:22;;;;;;;5.23;1.40;;;;;;;11.54;36.41;101780.94;5029784;28;20029;-72
2022/04/02 02:27:48;;;;;;;2.50;1.60;;;;;;;11.52;36.27;101782.69;5029613;28;20036;-72
2022/04/02 02:30:14;;;;;;;4.83;1.43;;;;;;;11.65;36.77;101783.59;5027805;28;20025;-72
2022/04/02 02:32:40;;;;;;;2.03;1.50;;;;;;;11.96;36.37;101782.75;5033075;28;20072;-72
2022/04/02 02:38:09;;;;;;;4.40;1.70;;;;;;;11.76;36.78;101787.94;5052605;28;20538;-73
2022/04/02 02:40:36;;;;;;;4.97;1.80;;;;;;;11.68;36.56;101794.06;5041437;28;20058;-72
2022/04/02 02:43:01;;;;;;;2.63;1.60;;;;;;;12.12;36.26;101799.34;5051593;28;20541;-72
2022/04/02 02:45:27;;;;;;;6.60;1.90;;;;;;;12.14;36.38;101792.34;5037734;28;20025;-72
2022/04/02 02:47:53;;;;;;;5.33;2.60;;;;;;;11.76;36.50;101790.56;5038567;28;20025;-72
2022/04/02 02:50:22;;;;;;;2.83;1.53;;;;;;;11.24;37.85;101794.88;5042463;28;20025;-72
2022/04/02 02:52:48;;;;;;;2.77;1.80;;;;;;;10.95;39.00;101802.59;5051751;28;20484;-72
2022/04/02 02:55:13;;;;;;;3.07;1.90;;;;;;;11.63;36.66;101800.16;5038638;28;20039;-72
2022/04/02 02:57:40;;;;;;;3.83;1.93;;;;;;;11.42;37.54;101803.63;5051734;28;20033;-72
2022/04/02 03:00:07;;;;;;;5.43;1.90;;;;;;;11.58;36.93;101797.56;5035044;28;20120;-71
2022/04/02 03:02:33;;;;;;;8.17;1.90;;;;;;;11.69;37.33;101802.78;5035123;28;20503;-72
2022/04/02 03:04:58;;;;;;;5.90;2.27;;;;;;;11.01;38.89;101803.50;5032661;28;20017;-72
2022/04/02 03:07:25;;;;;;;4.60;2.60;;;;;;;11.65;37.68;101799.28;5032077;28;20527;-72
2022/04/02 03:09:51;;;;;;;3.97;2.30;;;;;;;11.68;38.07;101799.28;5034810;28;20029;-72
2022/04/02 03:12:16;;;;;;;5.23;1.90;;;;;;;11.80;37.47;101802.78;5050690;28;20079;-72
2022/04/02 03:14:42;;;;;;;4.07;2.43;;;;;;;11.29;39.11;101801.00;5042234;28;20565;-72
2022/04/02 03:17:08;;;;;;;2.97;2.13;;;;;;;11.57;38.47;101798.41;5052739;28;20025;-72
2022/04/02 03:19:34;;;;;;;6.80;2.50;;;;;;;10.45;39.79;101806.72;5042810;28;20539;-72
2022/04/02 03:22:00;;;;;;;2.80;2.10;;;;;;;11.52;38.61;101802.75;5031731;28;20048;-72
2022/04/02 03:24:25;;;;;;;5.20;2.30;;;;;;;10.75;39.61;101813.84;5033033;28;20366;-72
2022/04/02 03:26:50;;;;;;;7.77;2.30;;;;;;;11.19;39.48;101807.06;5032897;28;20025;-71
2022/04/02 03:29:16;;;;;;;6.70;3.03;;;;;;;11.46;38.95;101802.78;5034235;28;20033;-72
2022/04/02 03:31:41;;;;;;;3.60;2.20;;;;;;;11.37;38.81;101799.25;5049831;28;20036;-72
2022/04/02 03:34:08;;;;;;;5.67;2.53;;;;;;;;;;5045620;28;20477;-72
2022/04/02 03:36:33;;;;;;;3.93;2.30;;;;;;;10.91;39.63;101812.19;5051115;28;20021;-72
2022/04/02 03:38:58;;;;;;;7.23;2.63;;;;;;;11.59;38.46;101801.91;5026877;28;20485;-72
2022/04/02 03:41:26;;;;;;;3.63;2.27;;;;;;;11.84;37.99;101799.28;5044916;28;20035;-72
2022/04/02 03:43:53;;;;;;;7.10;2.37;;;;;;;12.00;37.82;101802.81;5050754;28;20039;-72
2022/04/02 03:49:03;;;;;;;3.10;2.10;;;;;;;11.50;38.80;101807.13;5048427;28;20044;-72
2022/04/02 03:51:28;;;;;;;5.13;3.33;;;;;;;12.42;37.16;101802.75;5037714;28;20021;-72
2022/04/02 03:53:53;;;;;;;9.20;2.80;;;;;;;11.37;38.87;101809.72;5042223;28;20611;-72
2022/04/02 03:56:19;;;;;;;7.00;2.50;;;;;;;12.54;36.57;101811.50;5035902;28;20477;-72
2022/04/02 03:58:44;;;;;;;3.90;2.40;;;;;;;12.17;37.49;101802.81;5033940;28;20485;-72
2022/04/02 04:01:09;;;;;;;7.67;2.80;;;;;;;12.33;36.83;101814.16;5029500;28;20029;-72
2022/04/02 04:03:35;;;;;;;6.53;2.67;;;;;;;12.43;37.14;101809.75;5052211;28;20472;-72
2022/04/02 04:06:01;;;;;;;9.70;4.13;;;;;;;12.21;37.13;101810.69;5034191;28;20025;-72
2022/04/02 04:08:26;;;;;;;5.63;3.00;;;;;;;11.80;37.81;101813.25;5036600;28;20477;-72
2022/04/02 04:10:51;;;;;;;7.50;3.33;;;;;;;12.12;37.59;101815.06;5037574;28;20023;-72
2022/04/02 04:13:17;;;;;;;6.13;3.50;;;;;;;12.24;37.45;101820.28;5038629;28;20026;-72
2022/04/02 04:15:42;;;;;;;6.90;2.80;;;;;;;12.29;37.10;101823.75;5030503;28;20025;-72
2022/04/02 04:18:08;;;;;;;8.73;3.10;;;;;;;11.86;38.48;101821.13;5029967;28;20033;-72
2022/04/02 04:20:33;;;;;;;5.83;2.77;;;;;;;12.76;36.38;101823.66;5038753;28;20062;-72
2022/04/02 04:22:58;;;;;;;4.00;3.00;;;;;;;11.66;38.68;101822.00;5041046;28;20038;-72
2022/04/02 04:25:24;;;;;;;5.60;2.60;;;;;;;11.74;38.56;101823.75;5034243;28;20551;-71
2022/04/02 04:27:49;;;;;;;3.37;2.50;;;;;;;12.02;38.32;101841.25;5044996;28;20064;-72
2022/04/02 04:30:15;;;;;;;5.90;3.20;;;;;;;12.60;37.01;101838.56;5034668;28;20075;-72
2022/04/02 04:32:40;;;;;;;8.03;3.30;;;;;;;12.36;37.21;101836.00;5046741;28;20032;-71
2022/04/02 04:35:06;;;;;;;6.97;3.17;;;;;;;11.78;37.93;101846.44;5035289;28;20082;-72
2022/04/02 04:37:35;;;;;;;6.43;3.10;;;;;;;12.55;36.83;101846.44;5029620;28;20052;-72
2022/04/02 04:40:01;;;;;;;7.40;3.60;;;;;;;12.10;37.44;101848.25;5047733;28;20119;-72
2022/04/02 04:42:26;;;;;;;6.83;3.33;;;;;;;11.56;38.43;101841.19;5038743;28;20500;-72
2022/04/02 04:44:51;;;;;;;6.13;2.93;;;;;;;11.97;37.97;101850.84;5031194;28;20531;-72
2022/04/02 04:47:17;;;;;;;9.30;3.10;;;;;;;11.97;37.97;101850.84;5051489;28;20033;-72
2022/04/02 04:49:42;;;;;;;6.83;3.40;;;;;;;12.38;37.19;101855.22;5030873;28;20397;-72
2022/04/02 04:52:07;;;;;;;6.00;3.40;;;;;;;12.54;36.76;101856.06;5016391;28;20082;-72
2022/04/02 04:54:33;;;;;;;4.73;3.20;;;;;;;11.89;37.89;101855.19;5026866;28;20412;-72
2022/04/02 04:56:58;;;;;;;6.40;3.03;;;;;;;11.76;38.11;101859.56;5048842;28;20421;-72
2022/04/02 04:59:23;;;;;;;10.00;3.20;;;;;;;11.77;38.11;101860.41;5033421;28;20497;-72
2022/04/02 05:01:49;;;;;;;7.37;3.23;;;;;;;11.03;39.42;101867.19;5047874;28;20384;-72
2022/04/02 05:04:14;;;;;;;6.27;3.40;;;;;;;11.54;38.99;101869.13;5049032;28;20025;-72
2022/04/02 05:06:41;;;;;;;6.17;2.67;;;;;;;11.30;39.03;101870.75;5032997;28;20099;-72
2022/04/02 05:09:06;;;;;;;6.97;3.50;;;;;;;11.54;38.92;101879.59;5041928;28;20052;-72
2022/04/02 05:11:32;;;;;;;12.00;4.20;;;;;;;11.13;39.59;101883.78;5029161;28;20056;-72
2022/04/02 05:13:58;;;;;;;6.57;3.30;;;;;;;11.48;39.14;101879.56;5029865;28;20021;-72
2022/04/02 05:16:26;;;;;;;17.70;4.13;;;;;;;11.02;39.99;101886.34;5037123;28;20048;-72
2022/04/02 05:18:54;;;;;;;9.30;3.73;;;;;;;11.43;39.44;101881.28;5037689;28;20371;-72
2022/04/02 05:21:19;;;;;;;5.10;3.33;;;;;;;11.32;39.35;101882.13;5042125;28;20120;-72
2022/04/02 05:23:45;;;;;;;7.70;3.73;;;;;;;11.16;39.02;101877.72;5030022;28;20133;-72
2022/04/02 05:26:10;;;;;;;5.07;3.00;;;;;;;11.53;38.90;101883.06;5027764;28;20092;-72
2022/04/02 05:28:36;;;;;;;5.57;3.37;;;;;;;11.11;39.79;101889.88;5029736;28;20501;-72
2022/04/02 05:31:02;;;;;;;7.37;3.50;;;;;;;10.60;40.32;101898.31;5030337;28;20029;-72
2022/04/02 05:33:27;;;;;;;5.23;3.10;;;;;;;10.74;40.04;101894.91;5028835;28;20397;-72
2022/04/02 05:35:53;;;;;;;8.83;3.97;;;;;;;10.74;40.04;101894.91;5030024;28;20029;-72
2022/04/02 05:38:18;;;;;;;5.03;3.43;;;;;;;11.62;38.22;101903.16;5030711;28;20466;-72
2022/04/02 05:40:43;;;;;;;10.77;4.40;;;;;;;11.85;37.96;101909.31;5028456;28;20108;-72
2022/04/02 05:43:09;;;;;;;12.17;4.33;;;;;;;12.04;37.64;101897.16;5029161;28;20044;-72
2022/04/02 05:45:34;;;;;;;11.97;5.33;;;;;;;11.63;38.06;101903.16;5029754;28;20250;-73
2022/04/02 05:48:00;;;;;;;16.87;5.70;;;;;;;11.55;38.08;101904.88;5033260;28;20055;-72
2022/04/02 05:50:26;;;;;;;10.00;4.70;;;;;;;11.62;38.29;101908.41;5030502;28;20040;-72
2022/04/02 05:52:52;;;;;;;16.57;6.23;;;;;;;11.96;37.65;101914.59;5050400;28;20033;-72
2022/04/02 05:55:19;;;;;;;8.93;4.97;;;;;;;11.59;38.67;101911.88;5036316;28;20033;-72
2022/04/02 05:57:46;;;;;;;11.67;5.73;;;;;;;11.89;37.88;101918.94;5037573;28;20032;-72
2022/04/02 06:00:15;;;;;;;18.37;10.40;;;;;;;12.33;37.15;101914.63;5008434;28;21002;-72
2022/04/02 06:02:41;;;;;;;21.50;10.33;;;;;;;11.68;37.71;101925.00;5011043;28;20034;-72
2022/04/02 06:05:08;;;;;;;15.73;8.63;;;;;;;12.41;37.30;101932.13;5028788;28;20040;-72
2022/04/02 06:07:34;;;;;;;14.70;8.93;;;;;;;11.95;37.98;101926.00;5033181;28;20348;-72
2022/04/02 06:10:02;;;;;;;11.20;7.77;;;;;;;11.44;38.79;101940.63;5032888;28;20506;-72
2022/04/02 06:12:28;;;;;;;20.47;10.53;;;;;;;11.85;37.93;101937.28;5034296;28;20036;-72
2022/04/02 06:14:53;;;;;;;13.73;7.40;;;;;;;11.87;37.80;101940.78;5032424;28;20045;-72
2022/04/02 06:17:19;;;;;;;14.97;5.33;;;;;;;12.16;37.56;101942.63;5034460;28;20087;-72
2022/04/02 06:19:44;;;;;;;6.20;3.90;;;;;;;11.92;37.76;101954.75;5034194;28;20079;-72
2022/04/02 06:22:10;;;;;;;9.90;4.00;;;;;;;12.61;36.70;101946.13;5048636;28;20404;-72
2022/04/02 06:24:35;;;;;;;5.03;3.33;;;;;;;12.25;36.88;101953.09;5032847;28;20021;-72
2022/04/02 06:27:00;;;;;;;7.83;3.43;;;;;;;11.98;37.20;101948.66;5032174;28;20029;-72
2022/04/02 06:29:26;;;;;;;5.80;3.23;;;;;;;12.32;36.97;101962.72;5032004;28;20029;-71
2022/04/02 06:31:51;;;;;;;5.43;2.83;;;;;;;10.35;39.87;101970.44;5032782;28;20075;-72
2022/04/02 06:34:17;;;;;;;5.83;2.90;;;;;;;11.68;37.85;101966.91;5033390;28;20029;-72
2022/04/02 06:36:42;;;;;;;5.50;3.50;;;;;;;12.33;36.90;101967.06;5012130;28;20033;-72
2022/04/02 06:39:07;;;;;;;5.00;3.23;;;;;;;10.72;39.87;101969.88;5028687;28;20036;-72
2022/04/02 06:41:33;;;;;;;5.53;3.13;;;;;;;11.36;38.17;101970.28;5033578;28;20033;-72
2022/04/02 06:43:58;;;;;;;5.27;2.63;;;;;;;11.07;37.92;101971.84;5032818;28;20029;-72
2022/04/02 06:46:24;;;;;;;11.40;3.33;;;;;;;11.27;38.34;101975.47;5032593;28;20029;-72
2022/04/02 06:48:49;;;;;;;9.73;4.10;;;;;;;11.57;38.11;101980.81;5032562;28;20064;-72
2022/04/02 06:51:16;;;;;;;10.90;4.00;;;;;;;10.72;39.58;101982.97;5032630;28;20029;-72
2022/04/02 06:53:41;;;;;;;5.20;2.73;;;;;;;10.74;40.13;101984.69;5032132;28;20029;-72
2022/04/02 06:56:07;;;;;;;4.90;3.17;;;;;;;11.49;39.02;101984.28;5032076;28;20367;-72
2022/04/02 06:58:35;;;;;;;9.40;2.80;;;;;;;11.81;37.47;101988.78;5032273;28;20075;-72
2022/04/02 07:01:00;;;;;;;7.47;3.13;;;;;;;12.44;36.70;101979.31;5037395;28;20021;-72
2022/04/02 07:03:25;;;;;;;5.33;3.33;;;;;;;12.24;36.96;101993.31;5040148;28;20043;-72
2022/04/02 07:05:54;;;;;;;4.33;3.00;;;;;;;13.05;34.75;101986.25;5033009;28;20499;-72
2022/04/02 07:08:20;;;;;;;4.33;3.00;;;;;;;12.98;35.27;101992.41;5031435;28;20053;-72
2022/04/02 07:10:45;;;;;;;8.27;3.23;;;;;;;13.27;34.80;101994.97;5031305;28;20084;-72
2022/04/02 07:13:11;;;;;;;4.13;2.60;;;;;;;11.05;36.96;102011.09;5014509;28;20037;-72
2022/04/02 07:15:38;;;;;;;4.40;2.20;;;;;;;12.26;35.40;101993.28;5033388;28;20026;-71
2022/04/02 07:18:09;;;;;;;6.70;2.43;;;;;;;12.14;35.49;102007.25;5030310;28;20029;-72
2022/04/02 07:20:36;;;;;;;7.87;2.90;;;;;;;12.07;35.51;102005.50;5031937;28;20029;-71
2022/04/02 07:23:03;;;;;;;3.10;2.17;;;;;;;11.54;36.33;102010.50;5030961;28;20060;-71
2022/04/02 07:25:29;;;;;;;2.67;2.00;;;;;;;11.55;35.47;102012.25;5031735;28;20021;-71
2022/04/02 07:27:57;;;;;;;10.13;2.93;;;;;;;12.18;33.49;102015.09;5032903;28;20084;-71
2022/04/02 07:30:24;;;;;;;6.47;2.17;;;;;;;12.09;34.15;102011.59;5031249;28;20021;-71
2022/04/02 07:32:50;;;;;;;4.43;2.03;;;;;;;13.01;32.26;102014.28;5030633;28;20444;-71
2022/04/02 07:35:15;;;;;;;5.23;1.93;;;;;;;13.23;31.83;102019.50;5031231;28;20025;-72
2022/04/02 07:38:03;;;;;;;3.13;1.70;;;;;;;13.86;29.64;102021.03;5033141;28;20038;-71
2022/04/02 07:40:36;;;;;;;8.40;1.70;;;;;;;15.48;27.96;102029.44;5011127;28;20049;-71
2022/04/02 07:43:08;;;;;;;6.43;2.00;;;;;;;18.89;24.54;102017.91;5016117;28;20112;-71
2022/04/02 07:45:42;;;;;;;5.15;2.40;;;;;;;17.55;25.55;102023.59;5031789;28;20489;-71
2022/04/02 07:48:10;;;;;;;3.90;1.23;;;;;;;17.51;24.67;102019.28;5030929;28;20112;-72
2022/04/02 07:50:41;;;;;;;2.93;1.53;;;;;;;19.37;22.88;102024.59;5031410;28;20025;-72
2022/04/02 07:53:14;;;;;;;3.70;1.40;;;;;;;19.27;22.84;102028.38;5029954;28;20033;-72
2022/04/02 07:55:41;;;;;;;1.63;1.13;;;;;;;17.03;24.15;102031.59;5032612;28;20061;-71
2022/04/02 07:58:11;;;;;;;2.37;1.30;;;;;;;18.63;23.75;102022.06;5032292;28;20029;-72
2022/04/02 08:00:39;;;;;;;1.90;1.17;;;;;;;19.48;22.72;102033.09;5030198;28;20045;-71
2022/04/02 08:03:08;;;;;;;2.40;1.30;;;;;;;18.83;22.56;102025.97;5032335;28;20051;-72
2022/04/02 08:05:34;;;;;;;5.00;1.37;;;;;;;18.74;22.58;102024.44;5030804;28;20029;-71
2022/04/02 08:08:01;;;;;;;3.00;1.40;;;;;;;18.69;23.10;102020.19;5031145;28;20426;-71
2022/04/02 08:10:28;;;;;;;5.20;1.23;;;;;;;17.03;23.99;102039.53;5026845;28;20030;-71
2022/04/02 08:12:57;;;;;;;3.80;1.30;;;;;;;17.61;24.16;102034.91;5012024;28;20036;-72
2022/04/02 08:15:24;;;;;;;4.17;1.20;;;;;;;16.89;24.91;102038.91;5015743;28;20080;-71
2022/04/02 08:17:55;;;;;;;1.43;1.00;;;;;;;16.97;23.88;102034.38;5012287;28;20128;-71
2022/04/02 08:20:22;;;;;;;4.93;0.90;;;;;;;15.27;25.23;102057.75;5010703;28;20458;-73
2022/04/02 08:22:48;;;;;;;1.10;1.00;;;;;;;18.26;21.29;102037.97;5026515;28;20049;-72
2022/04/02 08:25:14;;;;;;;2.33;1.00;;;;;;;17.99;21.12;102040.31;5030040;28;20087;-71
2022/04/02 08:27:45;;;;;;;1.83;1.30;;;;;;;16.87;21.60;102048.59;5031089;28;20026;-72
2022/04/02 08:30:17;;;;;;;2.07;1.17;;;;;;;17.58;22.18;102052.59;5030573;28;20034;-71
2022/04/02 08:33:07;;;;;;;1.33;0.93;;;;;;;18.16;21.95;102047.00;5030180;28;20028;-72
2022/04/02 08:35:39;;;;;;;2.00;1.03;;;;;;;17.24;22.18;102047.97;5031244;28;20108;-72
2022/04/02 08:38:23;;;;;;;1.40;1.20;;;;;;;17.83;22.24;102042.38;5013740;28;20027;-71
2022/04/02 08:40:57;;;;;;;2.53;1.00;;;;;;;18.05;21.41;102053.44;5012315;28;20053;-71
2022/04/02 08:44:00;;;;;;;3.40;1.00;;;;;;;17.19;22.36;102063.06;5026916;28;20112;-71
2022/04/02 08:47:07;;;;;;;3.65;1.08;;;;;;;17.22;21.89;102065.63;5023027;28;20037;-72
2022/04/02 08:49:35;;;;;;;1.97;1.10;;;;;;;17.42;22.57;102059.94;5024289;28;20474;-71
2022/04/02 08:52:13;;;;;;;7.90;1.60;;;;;;;17.71;22.32;102066.44;5017998;28;20555;-71
2022/04/02 08:54:46;;;;;;;2.10;1.10;;;;;;;17.03;22.25;102065.94;5030508;28;20536;-71
2022/04/02 08:57:20;;;;;;;5.35;1.20;;;;;;;17.98;21.60;102075.59;5030215;28;20112;-72
2022/04/02 09:00:17;;;;;;;6.07;1.00;;;;;;;16.98;21.96;102067.81;5029626;28;20040;-71
2022/04/02 09:02:57;;;;;;;1.90;0.90;;;;;;;16.91;22.18;102068.78;5031061;28;20084;-71
2022/04/02 09:05:38;;;;;;;3.13;1.00;;;;;;;16.98;21.21;102075.75;5029887;28;20021;-71
2022/04/02 09:08:44;;;;;;;0.93;0.80;;;;;;;17.96;21.08;102077.44;5028669;28;20033;-72
2022/04/02 09:11:24;;;;;;;4.83;1.20;;;;;;;19.52;19.80;102075.44;5049491;28;20029;-72
2022/04/02 09:14:04;;;;;;;3.03;1.03;;;;;;;19.41;19.66;102079.25;5030059;28;20056;-72
2022/04/02 09:16:42;;;;;;;1.57;1.10;;;;;;;19.27;18.56;102076.09;5029483;28;20037;-72
2022/04/02 09:19:11;;;;;;;4.40;0.80;;;;;;;18.20;19.47;102080.44;5023106;28;20131;-72
2022/04/02 09:21:56;;;;;;;1.60;1.27;;;;;;;18.93;18.84;102066.38;5030835;28;20061;-71
2022/04/02 09:25:12;;;;;;;3.13;1.30;;;;;;;18.47;19.38;102082.44;5029297;28;20040;-72
2022/04/02 09:28:10;;;;;;;0.67;0.67;;;;;;;20.15;19.03;102078.91;5030849;28;20025;-72
2022/04/02 09:31:12;;;;;;;2.35;1.00;;;;;;;20.35;18.28;102088.94;5030774;28;20017;-72
2022/04/02 09:33:57;;;;;;;2.22;1.17;;;;;;;18.98;18.76;102086.53;5029333;28;20443;-71
2022/04/02 09:36:34;;;;;;;3.23;1.13;;;;;;;19.88;18.67;102083.25;5029269;28;20486;-72
2022/04/02 09:39:14;;;;;;;1.52;0.90;;;;;;;21.92;17.97;102077.38;5029576;28;20030;-72
2022/04/02 09:41:58;;;;;;;1.58;1.00;;;;;;;20.23;17.69;102089.31;5028010;28;20021;-72
2022/04/02 09:44:38;;;;;;;1.15;0.88;;;;;;;21.89;16.52;102071.31;5029959;28;20021;-72
2022/04/02 09:47:22;;;;;;;1.50;0.73;;;;;;;20.08;17.53;102085.34;5027937;28;20037;-72
2022/04/02 09:50:08;;;;;;;4.55;1.20;;;;;;;18.75;19.59;102100.34;5030487;28;20025;-72
2022/04/02 09:52:37;;;;;;;2.93;0.90;;;;;;;16.60;21.04;102100.94;5011996;28;20404;-71
2022/04/02 09:55:09;;;;;;;7.00;1.20;;;;;;;16.53;22.99;102109.88;5029064;28;20026;-71
2022/04/02 09:57:52;;;;;;;2.67;0.87;;;;;;;15.12;24.20;102105.31;5028522;28;20033;-71
2022/04/02 10:00:18;;;;;;;4.07;1.40;;;;;;;13.87;25.35;102106.91;5027111;28;20030;-71
2022/04/02 10:03:08;;;;;;;3.97;0.90;;;;;;;14.99;24.78;102113.31;5028544;28;20029;-71
2022/04/02 10:05:42;;;;;;;3.17;1.40;;;;;;;14.71;25.08;102110.91;5028996;28;20388;-72
2022/04/02 10:08:36;;;;;;;3.73;1.67;;;;;;;14.37;24.51;102111.06;5028973;28;20029;-71
2022/04/02 10:11:07;;;;;;;8.00;3.17;;;;;;;16.05;24.80;102111.38;5029628;28;20396;-71
2022/04/02 10:13:34;;;;;;;10.37;2.53;;;;;;;14.92;24.23;102111.63;5028737;28;20039;-71
2022/04/02 10:15:59;;;;;;;4.33;2.10;;;;;;;14.87;24.06;102119.53;5028570;28;20091;-71
2022/04/02 10:18:26;;;;;;;5.20;1.80;;;;;;;15.63;24.36;102108.31;5028657;28;20034;-71
2022/04/02 10:20:53;;;;;;;8.70;2.63;;;;;;;15.31;23.59;102103.38;5029594;28;20031;-72
2022/04/02 10:23:24;;;;;;;1.97;1.20;;;;;;;17.52;22.55;102092.41;5028133;28;20064;-71
2022/04/02 10:26:11;;;;;;;6.03;1.70;;;;;;;19.26;20.74;102090.25;5027722;28;20021;-71
2022/04/02 10:28:51;;;;;;;3.70;1.23;;;;;;;19.01;20.91;102080.28;5028893;28;20033;-71
2022/04/02 10:31:49;;;;;;;4.97;1.67;;;;;;;17.81;21.32;102090.03;5021683;28;20041;-73
2022/04/02 10:34:33;;;;;;;6.67;1.93;;;;;;;15.40;23.27;102092.72;5029391;28;20045;-73
2022/04/02 10:37:10;;;;;;;7.70;1.07;;;;;;;14.68;25.03;102095.09;5020157;28;20025;-73
2022/04/02 10:39:47;;;;;;;1.87;1.17;;;;;;;15.19;24.85;102093.81;5027180;28;20057;-72
2022/04/02 10:42:18;;;;;;;3.03;1.10;;;;;;;15.90;24.25;102101.88;5024173;28;20026;-73
2022/04/02 10:44:45;;;;;;;1.87;1.30;;;;;;;16.32;23.69;102101.34;5023863;28;21864;-73
2022/04/02 10:47:13;;;;;;;2.37;1.20;;;;;;;16.07;24.05;102112.25;5025978;28;20383;-73
2022/04/02 10:49:45;;;;;;;1.77;1.20;;;;;;;15.03;24.64;102108.88;5027755;28;20037;-73
2022/04/02 10:52:13;;;;;;;2.20;1.02;;;;;;;17.57;23.77;102096.69;5029154;28;20076;-73
2022/04/02 10:54:40;;;;;;;1.93;1.13;;;;;;;17.78;21.91;102100.66;5036897;28;20119;-73
2022/04/02 10:57:06;;;;;;;1.43;1.27;;;;;;;18.06;22.19;102089.53;5032153;28;20155;-74
2022/04/02 10:59:32;;;;;;;2.80;1.53;;;;;;;18.89;20.49;102085.91;5032467;28;20116;-73
2022/04/02 11:02:00;;;;;;;1.53;0.70;;;;;;;18.43;19.17;102096.66;5032453;28;20021;-73
2022/04/02 11:04:30;;;;;;;1.47;0.80;;;;;;;18.00;19.38;102104.66;5029677;28;20170;-73
2022/04/02 11:06:57;;;;;;;2.90;1.10;;;;;;;17.44;20.99;102096.03;5027731;28;20025;-73
2022/04/02 11:09:36;;;;;;;3.53;1.33;;;;;;;16.25;22.20;102105.84;5029200;28;20025;-73
2022/04/02 11:12:05;;;;;;;2.07;1.53;;;;;;;15.47;24.10;102110.25;5033325;28;20130;-73
2022/04/02 11:14:42;;;;;;;1.30;0.97;;;;;;;14.98;23.81;102111.56;5028819;28;20057;-73
2022/04/02 11:17:08;;;;;;;1.43;0.77;;;;;;;15.74;23.55;102116.09;5031648;28;20079;-73
2022/04/02 11:19:54;;;;;;;1.53;1.10;;;;;;;17.02;22.19;102098.56;5016111;28;20026;-73
2022/04/02 11:22:27;;;;;;;2.57;1.03;;;;;;;16.55;21.66;102094.88;5028603;28;20528;-73
2022/04/02 11:24:59;;;;;;;;;;;;;;;16.86;21.55;102102.31;5026550;28;20029;-73
2022/04/02 11:27:28;;;;;;;1.90;0.80;;;;;;;15.60;22.46;102111.84;5030758;28;19987;-73
2022/04/02 11:30:01;;;;;;;3.57;1.10;;;;;;;17.01;20.68;102104.72;5029505;28;20121;-73
2022/04/02 11:32:34;;;;;;;2.43;1.03;;;;;;;17.20;21.28;102096.47;5027406;28;20032;-73
2022/04/02 11:35:00;;;;;;;1.08;0.80;;;;;;;19.29;20.75;102084.91;5032076;28;20064;-73
2022/04/02 11:37:31;;;;;;;4.47;1.03;;;;;;;18.16;19.17;102092.00;5030846;28;20026;-73
2022/04/02 11:40:03;;;;;;;1.13;0.90;;;;;;;16.11;20.60;102113.94;5027903;28;20029;-73
2022/04/02 11:42:34;;;;;;;2.65;0.88;;;;;;;16.33;21.18;102108.34;5019475;28;20033;-73